createdAt,value
2019-06-20T00:00:12.639Z,5.10
2019-06-20T00:01:12.654Z,5.00
2019-06-20T00:02:12.617Z,4.90
2019-06-20T00:03:12.607Z,5.30
2019-06-20T00:04:12.621Z,5.00
2019-06-20T00:05:12.634Z,4.60
2019-06-20T00:06:12.574Z,4.30
2019-06-20T00:07:12.571Z,5.10
2019-06-20T00:08:12.571Z,6.10
2019-06-20T00:09:12.547Z,76.30
2019-06-20T00:10:12.567Z,5.70
2019-06-20T00:11:12.554Z,4.10
2019-06-20T00:12:12.516Z,4.30
2019-06-20T00:13:12.503Z,20.20
2019-06-20T00:14:12.487Z,999.90
2019-06-20T00:15:12.474Z,999.90
2019-06-20T00:16:12.488Z,315.00
2019-06-20T00:17:12.455Z,999.90
2019-06-20T00:18:12.445Z,456.50
2019-06-20T00:19:12.430Z,72.00
2019-06-20T00:20:12.446Z,270.80
2019-06-20T00:21:12.443Z,4.80
2019-06-20T00:22:12.418Z,4.80
2019-06-20T00:23:12.382Z,5.70
2019-06-20T00:24:12.377Z,5.20
2019-06-20T00:25:12.380Z,50.80
2019-06-20T00:26:12.386Z,12.50
2019-06-20T00:27:12.344Z,93.70
2019-06-20T00:28:12.329Z,216.30
2019-06-20T00:29:12.343Z,287.00
2019-06-20T00:30:12.420Z,200.10
2019-06-20T00:31:12.322Z,45.90
2019-06-20T00:32:12.295Z,210.50
2019-06-20T00:33:12.311Z,568.60
2019-06-20T00:34:12.261Z,667.70
2019-06-20T00:35:12.256Z,747.70
2019-06-20T00:36:12.238Z,960.20
2019-06-20T00:37:12.269Z,148.20
2019-06-20T00:38:12.227Z,999.90
2019-06-20T00:39:12.209Z,999.90
2019-06-20T00:40:12.201Z,669.60
2019-06-20T00:41:12.186Z,999.90
2019-06-20T00:42:12.205Z,999.90
2019-06-20T00:43:17.575Z,999.90
2019-06-20T00:44:13.148Z,999.90
2019-06-20T00:45:12.146Z,999.90
2019-06-20T00:46:12.170Z,999.90
2019-06-20T00:47:12.159Z,999.90
2019-06-20T00:48:12.121Z,403.40
2019-06-20T00:49:12.099Z,999.90
2019-06-20T00:50:12.167Z,999.90
2019-06-20T00:51:12.075Z,999.90
2019-06-20T00:52:12.183Z,224.30
2019-06-20T00:53:12.077Z,999.90
2019-06-20T00:54:12.056Z,999.90
2019-06-20T00:55:12.030Z,999.90
2019-06-20T00:56:12.030Z,48.00
2019-06-20T00:57:12.042Z,999.90
2019-06-20T00:58:11.998Z,999.90
2019-06-20T00:59:11.984Z,138.50
2019-06-20T01:00:11.992Z,999.90
2019-06-20T01:01:11.963Z,18.60
2019-06-20T01:02:11.979Z,999.90
2019-06-20T01:03:11.942Z,298.10
2019-06-20T01:04:11.934Z,368.40
2019-06-20T01:05:11.929Z,999.90
2019-06-20T01:06:11.934Z,999.90
2019-06-20T01:07:11.905Z,761.90
2019-06-20T01:08:11.885Z,289.30
2019-06-20T01:09:11.923Z,500.80
2019-06-20T01:10:11.939Z,451.60
2019-06-20T01:11:11.853Z,131.50
2019-06-20T01:12:11.875Z,633.80
2019-06-20T01:13:11.832Z,371.10
2019-06-20T01:14:11.823Z,933.30
2019-06-20T01:15:11.813Z,70.60
2019-06-20T01:16:11.806Z,322.20
2019-06-20T01:17:11.821Z,234.90
2019-06-20T01:18:11.807Z,3.50
2019-06-20T01:19:11.763Z,70.00
2019-06-20T01:20:11.759Z,4.50
2019-06-20T01:21:11.743Z,7.90
2019-06-20T01:22:11.764Z,9.80
2019-06-20T01:23:11.730Z,669.40
2019-06-20T01:24:11.711Z,999.90
2019-06-20T01:25:11.701Z,218.60
2019-06-20T01:26:11.753Z,619.10
2019-06-20T01:27:11.706Z,321.40
2019-06-20T01:28:11.695Z,826.70
2019-06-20T01:29:11.656Z,999.90
2019-06-20T01:30:11.647Z,999.90
2019-06-20T01:31:11.634Z,999.90
2019-06-20T01:32:11.629Z,999.90
2019-06-20T01:33:11.639Z,999.90
2019-06-20T01:34:11.610Z,999.90
2019-06-20T01:35:11.597Z,999.90
2019-06-20T01:36:11.626Z,354.80
2019-06-20T01:37:11.607Z,253.20
2019-06-20T01:38:11.550Z,180.20
2019-06-20T01:39:11.561Z,4.30
2019-06-20T01:40:11.530Z,17.70
2019-06-20T01:41:11.519Z,404.60
2019-06-20T01:42:11.536Z,299.10
2019-06-20T01:43:11.533Z,3.50
2019-06-20T01:44:11.516Z,4.00
2019-06-20T01:45:11.483Z,4.90
2019-06-20T01:46:11.464Z,4.00
2019-06-20T01:47:11.458Z,4.50
2019-06-20T01:48:11.450Z,3.80
2019-06-20T01:49:11.543Z,4.60
2019-06-20T01:50:11.415Z,242.90
2019-06-20T01:51:11.405Z,999.90
2019-06-20T01:52:11.394Z,999.90
2019-06-20T01:53:11.417Z,999.90
2019-06-20T01:54:11.410Z,999.90
2019-06-20T01:55:11.365Z,999.90
2019-06-20T01:56:11.371Z,999.90
2019-06-20T01:57:11.345Z,999.90
2019-06-20T01:58:11.334Z,999.90
2019-06-20T01:59:11.358Z,999.90
2019-06-20T02:00:11.310Z,999.90
2019-06-20T02:01:11.308Z,999.90
2019-06-20T02:02:11.283Z,999.90
2019-06-20T02:03:11.317Z,999.90
2019-06-20T02:04:11.262Z,999.90
2019-06-20T02:05:11.249Z,999.90
2019-06-20T02:06:11.242Z,999.90
2019-06-20T02:07:11.270Z,915.60
2019-06-20T02:08:11.459Z,999.90
2019-06-20T02:09:11.207Z,258.40
2019-06-20T02:10:11.197Z,999.90
2019-06-20T02:11:11.194Z,999.90
2019-06-20T02:12:11.203Z,999.90
2019-06-20T02:13:11.185Z,999.90
2019-06-20T02:14:11.154Z,999.90
2019-06-20T02:15:11.140Z,999.90
2019-06-20T02:16:11.132Z,999.90
2019-06-20T02:17:11.163Z,999.90
2019-06-20T02:18:11.110Z,999.90
2019-06-20T02:19:11.138Z,999.90
2019-06-20T02:20:11.090Z,69.30
2019-06-20T02:21:11.079Z,999.90
2019-06-20T02:22:11.101Z,999.90
2019-06-20T02:23:11.054Z,999.90
2019-06-20T02:24:11.038Z,999.90
2019-06-20T02:25:11.055Z,999.90
2019-06-20T02:26:11.053Z,141.30
2019-06-20T02:27:11.037Z,999.90
2019-06-20T02:28:11.016Z,999.90
2019-06-20T02:29:11.012Z,999.90
2019-06-20T02:30:11.015Z,999.90
2019-06-20T02:31:11.001Z,999.90
2019-06-20T02:32:10.975Z,463.00
2019-06-20T02:33:10.948Z,564.60
2019-06-20T02:34:10.927Z,999.90
2019-06-20T02:35:10.915Z,999.90
2019-06-20T02:36:10.932Z,381.60
2019-06-20T02:37:10.894Z,92.70
2019-06-20T02:38:10.896Z,999.90
2019-06-20T02:39:10.878Z,999.90
2019-06-20T02:40:10.866Z,999.90
2019-06-20T02:41:10.885Z,999.90
2019-06-20T02:42:10.841Z,999.90
2019-06-20T02:43:10.837Z,999.90
2019-06-20T02:44:28.581Z,999.90
2019-06-20T02:45:11.804Z,999.90
2019-06-20T02:46:10.792Z,9.80
2019-06-20T02:47:10.785Z,999.90
2019-06-20T02:48:10.806Z,999.90
2019-06-20T02:49:10.779Z,999.90
2019-06-20T02:50:10.747Z,999.90
2019-06-20T02:51:10.740Z,999.90
2019-06-20T02:52:10.754Z,999.90
2019-06-20T02:53:10.722Z,999.90
2019-06-20T02:54:10.709Z,347.20
2019-06-20T02:55:10.699Z,433.20
2019-06-20T02:56:10.714Z,999.90
2019-06-20T02:57:10.714Z,416.90
2019-06-20T02:58:10.726Z,999.90
2019-06-20T02:59:10.652Z,999.90
2019-06-20T03:00:10.680Z,999.90
2019-06-20T03:01:10.628Z,999.90
2019-06-20T03:02:10.637Z,999.90
2019-06-20T03:03:10.614Z,999.90
2019-06-20T03:04:10.597Z,999.90
2019-06-20T03:05:10.613Z,478.50
2019-06-20T03:06:10.586Z,906.30
2019-06-20T03:07:10.559Z,999.90
2019-06-20T03:08:10.590Z,942.50
2019-06-20T03:09:10.547Z,999.90
2019-06-20T03:10:10.525Z,999.90
2019-06-20T03:11:10.515Z,999.90
2019-06-20T03:12:10.535Z,999.90
2019-06-20T03:13:10.520Z,999.90
2019-06-20T03:14:10.484Z,55.80
2019-06-20T03:15:10.500Z,776.90
2019-06-20T03:16:10.465Z,211.40
2019-06-20T03:17:10.491Z,13.60
2019-06-20T03:18:10.439Z,194.10
2019-06-20T03:19:10.433Z,783.90
2019-06-20T03:20:10.433Z,400.20
2019-06-20T03:21:10.405Z,999.90
2019-06-20T03:22:10.487Z,863.90
2019-06-20T03:23:10.415Z,336.20
2019-06-20T03:24:10.370Z,74.40
2019-06-20T03:25:10.383Z,999.90
2019-06-20T03:26:10.349Z,999.90
2019-06-20T03:27:10.339Z,271.90
2019-06-20T03:28:10.327Z,248.40
2019-06-20T03:29:10.388Z,114.40
2019-06-20T03:30:10.317Z,999.90
2019-06-20T03:31:10.290Z,999.90
2019-06-20T03:32:10.308Z,184.40
2019-06-20T03:33:10.302Z,999.90
2019-06-20T03:34:10.286Z,999.90
2019-06-20T03:35:10.256Z,999.90
2019-06-20T03:36:10.234Z,999.90
2019-06-20T03:37:10.318Z,999.90
2019-06-20T03:38:10.218Z,999.90
2019-06-20T03:39:10.244Z,999.90
2019-06-20T03:40:10.194Z,999.90
2019-06-20T03:41:10.181Z,494.40
2019-06-20T03:42:10.191Z,999.90
2019-06-20T03:43:10.155Z,704.00
2019-06-20T03:44:10.176Z,84.40
2019-06-20T03:45:10.136Z,805.10
2019-06-20T03:46:10.125Z,430.90
2019-06-20T03:47:10.114Z,410.80
2019-06-20T03:48:10.105Z,999.90
2019-06-20T03:49:10.138Z,758.80
2019-06-20T03:50:10.088Z,999.90
2019-06-20T03:51:10.071Z,700.50
2019-06-20T03:52:10.061Z,999.90
2019-06-20T03:53:10.044Z,985.00
2019-06-20T03:54:10.088Z,999.90
2019-06-20T03:55:10.026Z,999.90
2019-06-20T03:56:10.014Z,741.10
2019-06-20T03:57:10.034Z,901.10
2019-06-20T03:58:09.988Z,999.90
2019-06-20T03:59:10.003Z,999.90
2019-06-20T04:00:09.974Z,999.90
2019-06-20T04:01:09.985Z,999.90
2019-06-20T04:02:09.954Z,474.50
2019-06-20T04:03:09.933Z,999.90
2019-06-20T04:04:09.925Z,999.90
2019-06-20T04:05:09.911Z,999.90
2019-06-20T04:06:09.936Z,999.90
2019-06-20T04:07:09.892Z,724.40
2019-06-20T04:08:09.878Z,601.70
2019-06-20T04:09:09.870Z,999.90
2019-06-20T04:10:09.864Z,557.00
2019-06-20T04:11:09.875Z,999.90
2019-06-20T04:12:09.834Z,999.90
2019-06-20T04:13:09.827Z,930.80
2019-06-20T04:14:09.811Z,622.30
2019-06-20T04:15:19.045Z,999.90
2019-06-20T04:16:10.813Z,880.60
2019-06-20T04:17:09.777Z,836.80
2019-06-20T04:18:09.793Z,288.90
2019-06-20T04:19:09.757Z,999.90
2019-06-20T04:20:09.746Z,561.60
2019-06-20T04:21:09.780Z,620.10
2019-06-20T04:22:09.799Z,999.90
2019-06-20T04:23:09.719Z,999.90
2019-06-20T04:24:09.708Z,999.90
2019-06-20T04:25:09.698Z,999.90
2019-06-20T04:26:09.707Z,999.90
2019-06-20T04:27:09.667Z,842.70
2019-06-20T04:28:09.660Z,999.90
2019-06-20T04:29:09.646Z,999.90
2019-06-20T04:30:09.655Z,999.90
2019-06-20T04:31:09.624Z,999.90
2019-06-20T04:32:09.619Z,999.90
2019-06-20T04:33:09.600Z,950.90
2019-06-20T04:34:09.589Z,999.90
2019-06-20T04:35:09.606Z,983.40
2019-06-20T04:36:09.593Z,999.90
2019-06-20T04:37:09.560Z,999.90
2019-06-20T04:38:09.552Z,999.90
2019-06-20T04:39:18.628Z,999.90
2019-06-20T04:40:10.526Z,676.10
2019-06-20T04:41:09.546Z,999.90
2019-06-20T04:42:09.505Z,999.90
2019-06-20T04:43:09.488Z,561.20
2019-06-20T04:44:09.484Z,999.90
2019-06-20T04:45:09.500Z,999.90
2019-06-20T04:46:09.485Z,999.90
2019-06-20T04:47:09.515Z,932.90
2019-06-20T04:48:09.460Z,999.90
2019-06-20T04:49:09.425Z,664.50
2019-06-20T04:50:09.416Z,918.20
2019-06-20T04:51:09.402Z,999.90
2019-06-20T04:52:09.416Z,999.90
2019-06-20T04:53:09.421Z,999.90
2019-06-20T04:54:09.372Z,999.90
2019-06-20T04:55:09.357Z,509.70
2019-06-20T04:56:09.344Z,999.90
2019-06-20T04:57:09.332Z,999.90
2019-06-20T04:58:09.350Z,999.90
2019-06-20T04:59:09.311Z,999.90
2019-06-20T05:00:09.371Z,999.90
2019-06-20T05:01:09.292Z,999.90
2019-06-20T05:02:09.278Z,773.80
2019-06-20T05:03:09.299Z,999.90
2019-06-20T05:04:09.262Z,999.90
2019-06-20T05:05:09.254Z,999.90
2019-06-20T05:06:09.270Z,999.90
2019-06-20T05:07:09.225Z,999.90
2019-06-20T05:08:09.239Z,999.90
2019-06-20T05:09:09.265Z,999.90
2019-06-20T05:10:09.201Z,812.90
2019-06-20T05:11:09.178Z,986.30
2019-06-20T05:12:09.174Z,774.50
2019-06-20T05:13:09.199Z,420.60
2019-06-20T05:14:09.148Z,504.70
2019-06-20T05:15:09.160Z,164.10
2019-06-20T05:16:09.126Z,88.50
2019-06-20T05:17:09.117Z,68.40
2019-06-20T05:18:09.151Z,9.30
2019-06-20T05:19:09.094Z,4.30
2019-06-20T05:20:09.101Z,4.30
2019-06-20T05:21:09.075Z,4.50
2019-06-20T05:22:09.085Z,4.30
2019-06-20T05:23:09.052Z,4.50
2019-06-20T05:24:09.063Z,4.00
2019-06-20T05:25:09.050Z,4.10
2019-06-20T05:26:09.013Z,4.30
2019-06-20T05:27:09.020Z,4.30
2019-06-20T05:28:09.018Z,4.10
2019-06-20T05:29:08.979Z,4.80
2019-06-20T05:30:08.987Z,4.40
2019-06-20T05:31:08.971Z,3.90
2019-06-20T05:32:08.957Z,4.60
2019-06-20T05:33:08.961Z,3.80
2019-06-20T05:34:08.928Z,3.90
2019-06-20T05:35:08.924Z,6.70
2019-06-20T05:36:08.938Z,4.50
2019-06-20T05:37:08.916Z,4.90
2019-06-20T05:38:08.889Z,4.70
2019-06-20T05:39:08.879Z,5.40
2019-06-20T05:40:08.860Z,4.40
2019-06-20T05:41:08.878Z,4.50
2019-06-20T05:42:08.845Z,5.30
2019-06-20T05:43:08.850Z,5.60
2019-06-20T05:44:08.814Z,5.00
2019-06-20T05:45:08.804Z,4.60
2019-06-20T05:46:11.168Z,4.50
2019-06-20T05:47:12.808Z,4.90
2019-06-20T05:48:09.799Z,4.90
2019-06-20T05:49:08.763Z,6.00
2019-06-20T05:50:08.764Z,9.50
2019-06-20T05:51:08.739Z,4.80
2019-06-20T05:52:08.727Z,85.40
2019-06-20T05:53:08.757Z,45.40
2019-06-20T05:54:08.709Z,7.10
2019-06-20T05:55:08.711Z,5.30
2019-06-20T05:56:08.826Z,5.20
2019-06-20T05:57:08.675Z,7.30
2019-06-20T05:58:08.687Z,5.80
2019-06-20T05:59:08.648Z,6.00
2019-06-20T06:00:08.641Z,7.10
2019-06-20T06:01:08.666Z,7.90
2019-06-20T06:02:08.641Z,6.20
2019-06-20T06:03:08.605Z,5.30
2019-06-20T06:04:08.977Z,6.20
2019-06-20T06:05:08.584Z,4.90
2019-06-20T06:06:08.594Z,5.80
2019-06-20T06:07:08.562Z,5.60
2019-06-20T06:08:08.557Z,5.50
2019-06-20T06:09:09.575Z,4.90
2019-06-20T06:10:08.530Z,5.40
2019-06-20T06:11:08.543Z,5.60
2019-06-20T06:12:08.538Z,5.30
2019-06-20T06:13:08.494Z,5.00
2019-06-20T06:14:08.490Z,5.90
2019-06-20T06:15:08.477Z,5.00
2019-06-20T06:16:22.593Z,5.50
2019-06-20T06:17:09.449Z,5.00
2019-06-20T06:18:08.468Z,4.40
2019-06-20T06:19:08.430Z,4.70
2019-06-20T06:20:08.425Z,5.40
2019-06-20T06:21:08.440Z,5.20
2019-06-20T06:22:08.411Z,5.20
2019-06-20T06:23:08.389Z,4.90
2019-06-20T06:24:08.375Z,4.90
2019-06-20T06:25:08.362Z,5.20
2019-06-20T06:26:08.398Z,5.30
2019-06-20T06:27:08.382Z,6.30
2019-06-20T06:28:12.102Z,5.30
2019-06-20T06:29:08.318Z,5.40
2019-06-20T06:30:08.308Z,5.40
2019-06-20T06:31:08.300Z,4.90
2019-06-20T06:32:08.311Z,5.30
2019-06-20T06:33:08.322Z,5.30
2019-06-20T06:34:08.269Z,5.00
2019-06-20T06:35:08.259Z,5.80
2019-06-20T06:36:08.243Z,5.80
2019-06-20T06:37:08.231Z,5.20
2019-06-20T06:38:08.252Z,5.40
2019-06-20T06:39:08.209Z,6.10
2019-06-20T06:40:08.203Z,5.70
2019-06-20T06:41:08.215Z,5.70
2019-06-20T06:42:08.176Z,5.50
2019-06-20T06:43:08.209Z,5.70
2019-06-20T06:44:08.565Z,6.10
2019-06-20T06:45:08.169Z,6.10
2019-06-20T06:46:08.130Z,5.60
2019-06-20T06:47:08.121Z,6.00
2019-06-20T06:48:08.135Z,6.50
2019-06-20T06:49:08.105Z,5.60
2019-06-20T06:50:08.092Z,6.40
2019-06-20T06:51:08.079Z,6.60
2019-06-20T06:52:08.064Z,6.60
2019-06-20T06:53:08.082Z,6.60
2019-06-20T06:54:08.047Z,7.20
2019-06-20T06:55:08.038Z,7.10
2019-06-20T06:56:08.023Z,8.70
2019-06-20T06:57:08.035Z,6.10
2019-06-20T06:58:07.998Z,6.10
2019-06-20T06:59:08.018Z,6.00
2019-06-20T07:00:07.991Z,5.80
2019-06-20T07:01:10.235Z,6.40
2019-06-20T07:02:08.079Z,5.60
2019-06-20T07:03:07.963Z,5.40
2019-06-20T07:04:07.961Z,6.50
2019-06-20T07:05:07.948Z,5.80
2019-06-20T07:06:07.909Z,6.00
2019-06-20T07:07:07.897Z,6.40
2019-06-20T07:08:07.888Z,5.40
2019-06-20T07:09:07.896Z,6.10
2019-06-20T07:10:07.864Z,5.70
2019-06-20T07:11:07.853Z,5.90
2019-06-20T07:12:07.847Z,5.30
2019-06-20T07:13:07.863Z,5.30
2019-06-20T07:14:07.847Z,5.30
2019-06-20T07:15:07.812Z,5.60
2019-06-20T07:16:07.799Z,5.50
2019-06-20T07:17:07.786Z,5.20
2019-06-20T07:18:07.789Z,5.90
2019-06-20T07:19:07.791Z,5.40
2019-06-20T07:20:07.761Z,5.30
2019-06-20T07:21:07.745Z,5.00
2019-06-20T07:22:07.761Z,5.20
2019-06-20T07:23:07.743Z,4.70
2019-06-20T07:24:07.717Z,4.60
2019-06-20T07:25:07.736Z,4.80
2019-06-20T07:26:07.690Z,4.60
2019-06-20T07:27:07.684Z,4.90
2019-06-20T07:28:07.687Z,5.00
2019-06-20T07:29:07.659Z,5.30
2019-06-20T07:30:07.669Z,5.20
2019-06-20T07:31:07.647Z,4.80
2019-06-20T07:32:07.655Z,4.60
2019-06-20T07:33:07.617Z,4.60
2019-06-20T07:34:07.599Z,4.40
2019-06-20T07:35:07.616Z,4.90
2019-06-20T07:36:07.632Z,4.30
2019-06-20T07:37:07.567Z,4.50
2019-06-20T07:38:07.560Z,4.20
2019-06-20T07:39:07.547Z,4.60
2019-06-20T07:40:07.536Z,4.50
2019-06-20T07:41:07.555Z,4.40
2019-06-20T07:42:07.511Z,4.40
2019-06-20T07:43:07.499Z,4.50
2019-06-20T07:44:07.494Z,4.20
2019-06-20T07:45:07.518Z,3.90
2019-06-20T07:46:07.491Z,4.80
2019-06-20T07:47:17.024Z,5.00
2019-06-20T07:48:08.449Z,5.00
2019-06-20T07:49:07.444Z,5.10
2019-06-20T07:50:07.466Z,5.40
2019-06-20T07:51:07.417Z,4.90
2019-06-20T07:52:07.404Z,4.50
2019-06-20T07:53:07.398Z,4.50
2019-06-20T07:54:07.383Z,4.20
2019-06-20T07:55:07.398Z,4.30
2019-06-20T07:56:09.485Z,4.50
2019-06-20T07:57:07.382Z,3.80
2019-06-20T07:58:07.337Z,4.60
2019-06-20T07:59:07.347Z,3.70
2019-06-20T08:00:07.345Z,3.80
2019-06-20T08:01:07.328Z,3.60
2019-06-20T08:02:07.298Z,3.80
2019-06-20T08:03:07.300Z,4.10
2019-06-20T08:04:07.272Z,3.50
2019-06-20T08:05:07.263Z,3.60
2019-06-20T08:06:07.284Z,3.50
2019-06-20T08:07:07.246Z,3.30
2019-06-20T08:08:07.234Z,3.80
2019-06-20T08:09:07.221Z,3.40
2019-06-20T08:10:07.215Z,3.20
2019-06-20T08:11:07.225Z,3.30
2019-06-20T08:12:07.191Z,3.00
2019-06-20T08:13:07.188Z,3.40
2019-06-20T08:14:07.163Z,3.50
2019-06-20T08:15:14.839Z,3.40
2019-06-20T08:16:08.170Z,3.40
2019-06-20T08:17:07.133Z,3.30
2019-06-20T08:18:07.121Z,3.70
2019-06-20T08:19:07.118Z,3.40
2019-06-20T08:20:07.101Z,3.80
2019-06-20T08:21:07.118Z,3.40
2019-06-20T08:22:07.080Z,3.30
2019-06-20T08:23:07.086Z,3.30
2019-06-20T08:24:07.064Z,3.60
2019-06-20T08:25:07.045Z,3.50
2019-06-20T08:26:07.060Z,3.20
2019-06-20T08:27:07.023Z,3.40
2019-06-20T08:28:07.048Z,3.10
2019-06-20T08:29:18.638Z,3.10
2019-06-20T08:30:07.990Z,3.30
2019-06-20T08:31:07.016Z,3.30
2019-06-20T08:32:06.996Z,3.30
2019-06-20T08:33:11.473Z,3.40
2019-06-20T08:34:07.981Z,3.40
2019-06-20T08:35:06.946Z,3.50
2019-06-20T08:36:06.927Z,3.50
2019-06-20T08:37:06.915Z,3.20
2019-06-20T08:38:07.555Z,3.40
2019-06-20T08:39:06.904Z,3.70
2019-06-20T08:40:06.882Z,3.30
2019-06-20T08:41:06.870Z,3.40
2019-06-20T08:42:06.892Z,4.90
2019-06-20T08:43:06.848Z,401.40
2019-06-20T08:44:06.842Z,359.00
2019-06-20T08:45:06.825Z,16.10
2019-06-20T08:46:10.223Z,701.40
2019-06-20T08:47:06.808Z,383.20
2019-06-20T08:48:07.432Z,521.20
2019-06-20T08:49:06.807Z,818.60
2019-06-20T08:50:06.781Z,614.80
2019-06-20T08:51:06.801Z,313.70
2019-06-20T08:52:06.760Z,507.40
2019-06-20T08:53:06.744Z,639.50
2019-06-20T08:54:06.729Z,722.00
2019-06-20T08:55:06.728Z,999.90
2019-06-20T08:56:06.736Z,978.30
2019-06-20T08:57:06.712Z,999.90
2019-06-20T08:58:06.712Z,999.90
2019-06-20T08:59:06.686Z,999.90
2019-06-20T09:02:06.646Z,999.90
2019-06-20T09:03:06.701Z,999.90
2019-06-20T09:04:06.624Z,999.90
2019-06-20T09:05:06.610Z,999.90
2019-06-20T09:06:06.638Z,999.90
2019-06-20T09:07:06.591Z,999.90
2019-06-20T09:08:06.587Z,999.90
2019-06-20T09:09:06.611Z,999.90
2019-06-20T09:10:06.576Z,999.90
2019-06-20T09:11:06.551Z,999.90
2019-06-20T09:12:06.535Z,999.90
2019-06-20T09:13:06.564Z,999.90
2019-06-20T09:14:06.547Z,999.90
2019-06-20T09:15:06.519Z,999.90
2019-06-20T09:16:06.492Z,999.90
2019-06-20T09:17:06.506Z,999.90
2019-06-20T09:18:06.472Z,999.90
2019-06-20T09:19:06.509Z,210.60
2019-06-20T09:20:06.448Z,999.90
2019-06-20T09:21:06.489Z,146.20
2019-06-20T09:22:06.432Z,999.90
2019-06-20T09:23:06.416Z,169.20
2019-06-20T09:24:06.405Z,999.90
2019-06-20T09:25:06.435Z,999.90
2019-06-20T09:26:06.382Z,103.60
2019-06-20T09:27:06.376Z,999.90
2019-06-20T09:28:06.373Z,999.90
2019-06-20T09:29:06.351Z,999.90
2019-06-20T09:30:06.365Z,999.90
2019-06-20T09:31:06.328Z,999.90
2019-06-20T09:32:06.326Z,999.90
2019-06-20T09:33:06.328Z,999.90
2019-06-20T09:34:06.301Z,999.90
2019-06-20T09:35:06.325Z,999.90
2019-06-20T09:36:06.275Z,999.90
2019-06-20T09:37:06.285Z,593.10
2019-06-20T09:38:06.299Z,925.40
2019-06-20T09:39:06.243Z,999.90
2019-06-20T09:40:06.232Z,999.90
2019-06-20T09:41:06.231Z,999.90
2019-06-20T09:42:06.209Z,999.90
2019-06-20T09:43:06.225Z,123.40
2019-06-20T09:44:06.190Z,931.70
2019-06-20T09:45:06.178Z,999.90
2019-06-20T09:46:06.167Z,999.90
2019-06-20T09:47:06.222Z,999.90
2019-06-20T09:48:06.171Z,91.80
2019-06-20T09:49:06.176Z,482.60
2019-06-20T09:50:06.129Z,999.90
2019-06-20T09:51:06.118Z,999.90
2019-06-20T09:52:06.128Z,999.90
2019-06-20T09:53:06.090Z,999.90
2019-06-20T09:54:06.106Z,999.90
2019-06-20T09:55:06.083Z,999.90
2019-06-20T09:56:06.085Z,999.90
2019-06-20T09:57:06.047Z,999.90
2019-06-20T09:58:06.039Z,999.90
2019-06-20T09:59:06.043Z,999.90
2019-06-20T10:00:10.355Z,999.90
2019-06-20T10:01:06.014Z,999.90
2019-06-20T10:02:06.001Z,999.90
2019-06-20T10:03:06.032Z,999.90
2019-06-20T10:04:06.002Z,999.90
2019-06-20T10:05:05.978Z,999.90
2019-06-20T10:06:13.996Z,999.90
2019-06-20T10:07:06.939Z,999.90
2019-06-20T10:08:05.938Z,999.90
2019-06-20T10:09:05.939Z,999.90
2019-06-20T10:10:05.909Z,999.90
2019-06-20T10:11:05.928Z,999.90
2019-06-20T10:12:05.917Z,999.90
2019-06-20T10:13:05.887Z,199.90
2019-06-20T10:14:05.872Z,999.90
2019-06-20T10:15:05.870Z,999.90
2019-06-20T10:16:05.869Z,999.90
2019-06-20T10:17:05.938Z,999.90
2019-06-20T10:18:05.859Z,999.90
2019-06-20T10:19:05.828Z,999.90
2019-06-20T10:20:05.806Z,999.90
2019-06-20T10:21:05.833Z,999.90
2019-06-20T10:22:05.808Z,999.90
2019-06-20T10:23:05.840Z,999.90
2019-06-20T10:24:05.759Z,999.90
2019-06-20T10:25:05.755Z,999.90
2019-06-20T10:26:05.745Z,999.90
2019-06-20T10:27:05.771Z,999.90
2019-06-20T10:28:05.750Z,999.90
2019-06-20T10:29:05.708Z,999.90
2019-06-20T10:30:14.284Z,999.90
2019-06-20T10:31:06.698Z,999.90
2019-06-20T10:32:13.346Z,33.10
2019-06-20T10:33:05.672Z,999.90
2019-06-20T10:34:05.662Z,999.90
2019-06-20T10:35:05.644Z,999.90
2019-06-20T10:36:05.672Z,528.20
2019-06-20T10:37:05.698Z,999.90
2019-06-20T10:38:05.607Z,818.60
2019-06-20T10:39:05.616Z,999.90
2019-06-20T10:40:05.614Z,999.90
2019-06-20T10:41:05.580Z,999.90
2019-06-20T10:42:05.598Z,520.70
2019-06-20T10:43:05.560Z,912.00
2019-06-20T10:44:05.665Z,300.60
2019-06-20T10:45:05.533Z,999.90
2019-06-20T10:46:05.545Z,999.90
2019-06-20T10:47:05.538Z,999.90
2019-06-20T10:48:05.521Z,999.90
2019-06-20T10:49:05.497Z,999.90
2019-06-20T10:50:05.481Z,999.90
2019-06-20T10:51:05.468Z,999.90
2019-06-20T10:52:05.498Z,999.90
2019-06-20T10:53:05.874Z,999.90
2019-06-20T10:54:05.435Z,999.90
2019-06-20T10:55:05.436Z,999.90
2019-06-20T10:56:05.416Z,999.90
2019-06-20T10:57:05.407Z,999.90
2019-06-20T10:58:06.320Z,999.90
2019-06-20T10:59:05.379Z,999.90
2019-06-20T11:00:05.376Z,999.90
2019-06-20T11:01:05.367Z,999.90
2019-06-20T11:02:07.245Z,999.90
2019-06-20T11:03:05.364Z,999.90
2019-06-20T11:04:05.363Z,999.90
2019-06-20T11:05:05.316Z,999.90
2019-06-20T11:06:05.303Z,999.90
2019-06-20T11:07:05.301Z,999.90
2019-06-20T11:08:05.389Z,999.90
2019-06-20T11:09:05.281Z,999.90
2019-06-20T11:10:05.268Z,999.90
2019-06-20T11:11:05.292Z,999.90
2019-06-20T11:12:05.240Z,999.90
2019-06-20T11:13:05.242Z,999.90
2019-06-20T11:14:05.219Z,999.90
2019-06-20T11:15:05.216Z,999.90
2019-06-20T11:16:05.242Z,999.90
2019-06-20T11:17:05.184Z,999.90
2019-06-20T11:18:05.188Z,999.90
2019-06-20T11:19:05.210Z,999.90
2019-06-20T11:20:05.152Z,999.90
2019-06-20T11:21:05.154Z,999.90
2019-06-20T11:22:05.133Z,999.90
2019-06-20T11:23:05.150Z,999.90
2019-06-20T11:24:05.110Z,999.90
2019-06-20T11:25:05.099Z,679.00
2019-06-20T11:26:05.098Z,858.60
2019-06-20T11:27:05.084Z,841.30
2019-06-20T11:28:05.094Z,999.90
2019-06-20T11:29:05.061Z,999.90
2019-06-20T11:30:05.055Z,999.90
2019-06-20T11:31:05.040Z,115.50
2019-06-20T11:32:05.036Z,999.90
2019-06-20T11:33:05.040Z,999.90
2019-06-20T11:34:05.004Z,999.90
2019-06-20T11:35:04.995Z,78.70
2019-06-20T11:36:04.989Z,999.90
2019-06-20T11:37:04.970Z,567.90
2019-06-20T11:38:04.994Z,999.90
2019-06-20T11:39:04.957Z,313.40
2019-06-20T11:40:04.937Z,663.10
2019-06-20T11:41:04.928Z,999.90
2019-06-20T11:42:04.932Z,999.90
2019-06-20T11:43:04.931Z,619.90
2019-06-20T11:44:04.920Z,999.90
2019-06-20T11:45:04.888Z,999.90
2019-06-20T11:46:04.873Z,999.90
2019-06-20T11:47:04.904Z,999.90
2019-06-20T11:48:04.879Z,999.90
2019-06-20T11:49:04.841Z,999.90
2019-06-20T11:50:04.831Z,905.70
2019-06-20T11:51:04.849Z,948.20
2019-06-20T11:52:04.821Z,999.90
2019-06-20T11:53:04.798Z,965.70
2019-06-20T11:54:04.813Z,892.20
2019-06-20T11:55:04.808Z,974.90
2019-06-20T11:56:04.766Z,999.90
2019-06-20T11:57:04.758Z,999.90
2019-06-20T11:58:04.780Z,918.60
2019-06-20T11:59:04.734Z,972.00
2019-06-20T12:00:04.751Z,903.30
2019-06-20T12:01:04.722Z,628.50
2019-06-20T12:02:04.720Z,974.00
2019-06-20T12:03:04.692Z,972.20
2019-06-20T12:04:04.708Z,503.30
2019-06-20T12:05:04.701Z,978.20
2019-06-20T12:06:04.658Z,901.10
2019-06-20T12:07:04.657Z,999.90
2019-06-20T12:08:04.666Z,999.90
2019-06-20T12:09:04.672Z,956.30
2019-06-20T12:10:04.641Z,999.90
2019-06-20T12:11:04.607Z,820.50
2019-06-20T12:12:04.599Z,999.90
2019-06-20T12:13:04.680Z,869.90
2019-06-20T12:14:04.606Z,999.90
2019-06-20T12:15:07.065Z,999.90
2019-06-20T12:16:04.556Z,764.60
2019-06-20T12:17:04.557Z,960.50
2019-06-20T12:18:04.569Z,999.90
2019-06-20T12:19:04.546Z,999.90
2019-06-20T12:20:04.522Z,989.50
2019-06-20T12:21:04.495Z,999.90
2019-06-20T12:22:04.491Z,999.90
2019-06-20T12:23:04.476Z,999.90
2019-06-20T12:24:04.505Z,999.90
2019-06-20T12:25:04.460Z,999.90
2019-06-20T12:26:04.483Z,999.90
2019-06-20T12:27:04.435Z,999.90
2019-06-20T12:28:04.420Z,999.90
2019-06-20T12:29:04.441Z,999.90
2019-06-20T12:30:04.447Z,999.90
2019-06-20T12:31:18.594Z,999.90
2019-06-20T12:32:05.377Z,935.00
2019-06-20T12:33:04.377Z,999.90
2019-06-20T12:34:04.385Z,999.90
2019-06-20T12:35:04.374Z,999.90
2019-06-20T12:36:04.333Z,999.90
2019-06-20T12:37:04.320Z,999.90
2019-06-20T12:38:04.329Z,999.90
2019-06-20T12:39:04.324Z,502.10
2019-06-20T12:40:04.336Z,999.90
2019-06-20T12:41:04.279Z,999.90
2019-06-20T12:42:04.269Z,999.90
2019-06-20T12:43:04.261Z,999.90
2019-06-20T12:44:04.250Z,999.90
2019-06-20T12:45:04.268Z,999.90